Time;durP1;ratioP1;P1;durP2;ratioP2;P2;SDS_P1;SDS_P2;PMS_P1;PMS_P2;Temp;Humidity;BMP_temperature;BMP_pressure;BME280_temperature;BME280_humidity;BME280_pressure;Samples;Min_cycle;Max_cycle;Signal;HPM_P1;HPM_P2
2022/04/22 00:01:35;;;;;;;4.20;2.10;;;;;;;;;;5045212;28;22114;-66
2022/04/22 00:04:03;;;;;;;4.85;2.28;;;;;;;;;;5042431;28;20214;-65
2022/04/22 00:06:30;;;;;;;6.03;1.95;;;;;;;;;;5041663;28;20041;-65
2022/04/22 00:08:57;;;;;;;5.72;1.77;;;;;;;;;;5042417;28;20497;-65
2022/04/22 00:11:30;;;;;;;5.43;2.22;;;;;;;;;;5040596;28;20049;-66
2022/04/22 00:14:04;;;;;;;3.80;1.73;;;;;;;;;;5042017;28;20041;-66
2022/04/22 00:16:31;;;;;;;4.55;2.13;;;;;;;;;;5041253;28;20374;-66
2022/04/22 00:18:58;;;;;;;4.78;2.10;;;;;;;;;;5041634;28;20051;-65
2022/04/22 00:21:26;;;;;;;4.53;1.90;;;;;;;;;;5040087;28;20115;-65
2022/04/22 00:23:53;;;;;;;4.18;2.00;;;;;;;;;;5042534;28;20574;-65
2022/04/22 00:26:20;;;;;;;4.80;1.80;;;;;;;;;;5023129;28;20040;-65
2022/04/22 00:28:47;;;;;;;7.50;1.88;;;;;;;;;;5041623;28;20120;-65
2022/04/22 00:31:14;;;;;;;6.35;1.77;;;;;;;;;;5040326;28;20048;-65
2022/04/22 00:33:41;;;;;;;4.30;1.67;;;;;;;;;;5039812;28;20121;-64
2022/04/22 00:36:08;;;;;;;7.15;2.03;;;;;;;;;;5042169;28;20080;-65
2022/04/22 00:38:35;;;;;;;4.25;1.65;;;;;;;;;;5041706;28;20037;-64
2022/04/22 00:41:02;;;;;;;3.65;1.75;;;;;;;;;;5040324;28;20044;-65
2022/04/22 00:43:28;;;;;;;5.53;2.00;;;;;;;;;;5041539;28;20041;-64
2022/04/22 00:45:56;;;;;;;8.20;1.83;;;;;;;;;;5041664;28;20069;-65
2022/04/22 00:48:23;;;;;;;4.05;1.77;;;;;;;;;;5040744;28;20046;-66
2022/04/22 00:50:49;;;;;;;6.07;1.83;;;;;;;;;;5041426;28;20126;-66
2022/04/22 00:53:16;;;;;;;5.78;1.90;;;;;;;;;;5041488;28;20135;-65
2022/04/22 00:55:44;;;;;;;5.93;1.98;;;;;;;;;;5038747;28;20045;-65
2022/04/22 00:58:11;;;;;;;4.85;2.22;;;;;;;;;;5041691;28;20048;-65
2022/04/22 01:00:39;;;;;;;5.75;2.03;;;;;;;;;;5039686;28;20041;-64
2022/04/22 01:03:06;;;;;;;7.50;2.08;;;;;;;;;;5039429;28;20045;-64
2022/04/22 01:11:04;;;;;;;4.88;2.10;;;;;;;;;;5039437;28;20064;-63
2022/04/22 01:13:31;;;;;;;6.18;2.00;;;;;;;;;;5040471;28;20036;-64
2022/04/22 01:15:58;;;;;;;5.82;2.05;;;;;;;;;;5039920;28;20067;-65
2022/04/22 01:18:24;;;;;;;9.10;2.05;;;;;;;;;;5039633;28;20420;-66
2022/04/22 01:20:51;;;;;;;8.80;3.03;;;;;;;;;;5040923;28;20061;-61
2022/04/22 01:23:18;;;;;;;5.57;2.20;;;;;;;;;;5042086;28;20172;-62
2022/04/22 01:25:45;;;;;;;4.03;2.00;;;;;;;;;;5029475;28;20048;-65
2022/04/22 01:28:11;;;;;;;5.03;2.08;;;;;;;;;;5037081;28;20077;-66
2022/04/22 01:30:38;;;;;;;6.85;1.88;;;;;;;;;;5040939;28;20942;-64
2022/04/22 01:33:05;;;;;;;4.25;1.80;;;;;;;;;;5041893;28;20033;-65
2022/04/22 01:35:32;;;;;;;5.78;2.25;;;;;;;;;;5038039;28;20040;-65
2022/04/22 01:37:58;;;;;;;4.97;1.95;;;;;;;;;;5039210;28;20534;-66
2022/04/22 01:40:25;;;;;;;5.65;1.92;;;;;;;;;;5038629;28;20033;-66
2022/04/22 01:42:53;;;;;;;4.13;2.00;;;;;;;;;;5037199;28;21833;-66
2022/04/22 01:45:20;;;;;;;5.50;2.20;;;;;;;;;;5040735;28;20095;-65
2022/04/22 01:47:47;;;;;;;6.78;2.08;;;;;;;;;;5039389;28;20056;-65
2022/04/22 01:50:13;;;;;;;5.38;2.05;;;;;;;;;;5039539;28;20044;-65
2022/04/22 01:52:41;;;;;;;4.47;2.28;;;;;;;;;;5038756;28;20178;-65
2022/04/22 01:55:08;;;;;;;7.57;2.17;;;;;;;;;;5040934;28;21036;-64
2022/04/22 01:57:34;;;;;;;5.28;2.00;;;;;;;;;;5042009;28;20514;-65
2022/04/22 02:00:02;;;;;;;6.45;2.58;;;;;;;;;;5021482;28;20045;-64
2022/04/22 02:02:29;;;;;;;11.07;2.55;;;;;;;;;;5040279;28;20107;-65
2022/04/22 02:04:56;;;;;;;4.82;2.20;;;;;;;;;;5043272;28;20135;-65
2022/04/22 02:07:22;;;;;;;7.30;2.60;;;;;;;;;;5041713;28;20067;-65
2022/04/22 02:09:49;;;;;;;7.07;2.40;;;;;;;;;;5042054;28;20576;-66
2022/04/22 02:12:16;;;;;;;5.55;2.60;;;;;;;;;;5041427;28;20056;-66
2022/04/22 02:14:42;;;;;;;8.55;2.67;;;;;;;;;;5040272;28;20032;-66
2022/04/22 02:17:09;;;;;;;5.40;2.63;;;;;;;;;;5038476;28;20085;-66
2022/04/22 02:19:36;;;;;;;8.18;3.38;;;;;;;;;;5038697;28;20041;-66
2022/04/22 02:22:03;;;;;;;9.98;2.75;;;;;;;;;;5042329;28;20029;-65
2022/04/22 02:24:29;;;;;;;4.78;2.58;;;;;;;;;;5038656;28;20670;-66
2022/04/22 02:29:42;;;;;;;7.95;2.28;;;;;;;;;;5038680;28;20060;-65
2022/04/22 02:32:09;;;;;;;6.00;2.60;;;;;;;;;;5019268;28;20040;-65
2022/04/22 02:34:35;;;;;;;5.45;2.45;;;;;;;;;;5037284;28;20033;-65
2022/04/22 02:37:02;;;;;;;6.63;2.67;;;;;;;;;;5019885;28;20056;-65
2022/04/22 02:39:29;;;;;;;5.18;2.55;;;;;;;;;;5037996;28;20060;-66
2022/04/22 02:47:26;;;;;;;5.20;2.60;;;;;;;;;;5039240;28;20135;-65
2022/04/22 02:49:53;;;;;;;7.03;2.72;;;;;;;;;;5037320;28;20489;-65
2022/04/22 02:52:20;;;;;;;5.40;2.92;;;;;;;;;;5037323;28;20045;-65
2022/04/22 02:54:46;;;;;;;8.70;2.95;;;;;;;;;;5039062;28;20131;-65
2022/04/22 02:57:13;;;;;;;6.72;2.75;;;;;;;;;;5021019;28;20099;-65
2022/04/22 02:59:41;;;;;;;8.43;3.20;;;;;;;;;;5036843;28;20134;-65
2022/04/22 03:02:08;;;;;;;5.95;3.00;;;;;;;;;;5037899;28;20061;-63
2022/04/22 03:04:35;;;;;;;6.40;3.05;;;;;;;;;;5037455;28;20041;-64
2022/04/22 03:07:01;;;;;;;9.13;2.90;;;;;;;;;;5038629;28;20044;-64
2022/04/22 03:09:28;;;;;;;5.80;2.33;;;;;;;;;;5036039;28;20950;-64
2022/04/22 03:11:55;;;;;;;5.07;2.72;;;;;;;;;;5038636;28;20037;-64
2022/04/22 03:14:22;;;;;;;7.35;3.08;;;;;;;;;;5036785;28;20087;-64
2022/04/22 03:16:48;;;;;;;6.32;2.90;;;;;;;;;;5037710;28;20072;-64
2022/04/22 03:19:15;;;;;;;7.13;3.00;;;;;;;;;;5038299;28;20136;-64
2022/04/22 03:21:42;;;;;;;5.07;2.72;;;;;;;;;;5042493;28;20118;-64
2022/04/22 03:24:11;;;;;;;6.70;2.95;;;;;;;;;;5039842;28;20036;-64
2022/04/22 03:26:38;;;;;;;6.05;3.10;;;;;;;;;;5022874;28;20033;-65
2022/04/22 03:29:04;;;;;;;7.00;2.90;;;;;;;;;;5023514;28;20646;-64
2022/04/22 03:31:31;;;;;;;5.25;2.65;;;;;;;;;;5043846;28;20044;-64
2022/04/22 03:33:58;;;;;;;5.10;2.75;;;;;;;;;;5042729;28;20060;-64
2022/04/22 03:36:24;;;;;;;6.20;2.95;;;;;;;;;;5041788;28;20057;-64
2022/04/22 03:38:51;;;;;;;6.72;3.10;;;;;;;;;;5041815;28;20802;-64
2022/04/22 03:41:18;;;;;;;10.20;3.25;;;;;;;;;;5042930;28;20048;-64
2022/04/22 03:43:45;;;;;;;10.95;3.13;;;;;;;;;;5042598;28;20041;-65
2022/04/22 03:46:12;;;;;;;6.03;2.97;;;;;;;;;;5043915;28;20037;-64
2022/04/22 03:48:39;;;;;;;6.63;3.30;;;;;;;;;;5041985;28;20194;-64
2022/04/22 03:51:06;;;;;;;4.88;2.85;;;;;;;;;;5044278;28;20041;-64
2022/04/22 03:53:36;;;;;;;8.45;3.13;;;;;;;;;;5041262;28;20082;-64
2022/04/22 03:58:49;;;;;;;7.32;3.60;;;;;;;;;;5043322;28;20110;-64
2022/04/22 04:01:16;;;;;;;9.60;3.42;;;;;;;;;;5046477;28;20043;-64
2022/04/22 04:03:43;;;;;;;8.25;4.72;;;;;;;;;;5043967;28;20063;-63
2022/04/22 04:06:10;;;;;;;7.70;3.85;;;;;;;;;;5046132;28;20037;-64
2022/04/22 04:08:37;;;;;;;6.30;3.20;;;;;;;;;;5042052;28;20044;-64
2022/04/22 04:16:34;;;;;;;8.63;3.75;;;;;;;;;;5041830;28;20075;-64
2022/04/22 04:24:31;;;;;;;6.63;3.42;;;;;;;;;;5040455;28;20051;-63
2022/04/22 04:26:58;;;;;;;10.85;3.33;;;;;;;;;;5041192;28;20497;-65
2022/04/22 04:29:26;;;;;;;7.47;3.58;;;;;;;;;;5021542;28;20033;-64
2022/04/22 04:31:52;;;;;;;10.85;4.22;;;;;;;;;;5038964;28;20040;-63
2022/04/22 04:34:19;;;;;;;7.53;3.55;;;;;;;;;;5041930;28;20224;-63
2022/04/22 04:36:46;;;;;;;8.35;3.60;;;;;;;;;;5041079;28;20103;-62
2022/04/22 04:39:12;;;;;;;7.63;3.53;;;;;;;;;;5040493;28;20042;-62
2022/04/22 04:41:40;;;;;;;8.00;3.28;;;;;;;;;;5041643;28;20042;-64
2022/04/22 04:44:07;;;;;;;7.63;3.35;;;;;;;;;;5041290;28;20041;-64
2022/04/22 04:46:34;;;;;;;7.88;3.20;;;;;;;;;;5040700;28;20041;-62
2022/04/22 04:49:02;;;;;;;6.30;3.40;;;;;;;;;;5039910;28;20044;-63
2022/04/22 04:51:29;;;;;;;7.10;3.10;;;;;;;;;;5040442;28;20386;-62
2022/04/22 04:53:56;;;;;;;6.43;3.53;;;;;;;;;;5040872;28;20126;-63
2022/04/22 04:56:23;;;;;;;7.30;3.33;;;;;;;;;;5041432;28;20053;-63
2022/04/22 04:58:49;;;;;;;7.70;3.40;;;;;;;;;;5041733;28;20425;-63
2022/04/22 05:01:16;;;;;;;6.50;3.58;;;;;;;;;;5040780;28;20527;-63
2022/04/22 05:03:43;;;;;;;5.28;2.95;;;;;;;;;;5040523;28;20048;-63
2022/04/22 05:06:11;;;;;;;7.38;3.30;;;;;;;;;;5039883;28;20037;-62
2022/04/22 05:08:56;;;;;;;7.93;3.30;;;;;;;;;;4979804;28;20046;-62
2022/04/22 05:11:23;;;;;;;6.85;2.70;;;;;;;;;;4979506;28;20412;-63
2022/04/22 05:13:49;;;;;;;7.10;3.22;;;;;;;;;;4980495;28;20046;-63
2022/04/22 05:16:16;;;;;;;7.28;2.70;;;;;;;;;;4980867;28;20054;-65
2022/04/22 05:18:43;;;;;;;4.88;2.60;;;;;;;;;;4979683;28;20414;-64
2022/04/22 05:21:10;;;;;;;5.95;2.70;;;;;;;;;;4980852;28;20042;-63
2022/04/22 05:23:37;;;;;;;8.20;3.03;;;;;;;;;;4961131;28;20094;-65
2022/04/22 05:26:04;;;;;;;4.95;2.88;;;;;;;;;;4980739;28;20030;-65
2022/04/22 05:28:31;;;;;;;4.70;2.72;;;;;;;;;;4960830;28;20482;-65
2022/04/22 05:33:43;;;;;;;7.25;3.22;;;;;;;;;;4981367;28;20077;-64
2022/04/22 05:36:10;;;;;;;7.70;3.00;;;;;;;;;;4979344;28;20054;-64
2022/04/22 05:38:37;;;;;;;6.65;3.13;;;;;;;;;;4979244;28;20135;-65
2022/04/22 05:41:04;;;;;;;5.25;2.90;;;;;;;;;;5020553;28;20552;-64
2022/04/22 05:43:30;;;;;;;7.97;3.13;;;;;;;;;;5022333;28;20064;-64
2022/04/22 05:45:58;;;;;;;5.00;2.75;;;;;;;;;;5023668;28;20067;-64
2022/04/22 05:48:26;;;;;;;5.82;2.97;;;;;;;;;;5021738;28;20042;-64
2022/04/22 05:50:53;;;;;;;5.22;2.80;;;;;;;;;;5023920;28;20038;-64
2022/04/22 05:53:20;;;;;;;6.40;3.00;;;;;;;;;;5023416;28;20120;-63
2022/04/22 05:55:47;;;;;;;5.05;2.70;;;;;;;;;;5014303;28;20038;-63
2022/04/22 05:58:13;;;;;;;4.78;2.63;;;;;;;;;;5023478;28;20057;-64
2022/04/22 06:00:40;;;;;;;4.53;2.25;;;;;;;;;;5022228;28;20033;-64
2022/04/22 06:03:07;;;;;;;5.70;2.60;;;;;;;;;;5023403;28;20043;-63
2022/04/22 06:05:33;;;;;;;7.85;2.70;;;;;;;;;;5023417;28;20045;-64
2022/04/22 06:10:51;;;;;;;5.63;2.53;;;;;;;;;;5022447;28;20040;-62
2022/04/22 06:13:18;;;;;;;4.13;2.30;;;;;;;;;;5022904;28;20053;-63
2022/04/22 06:15:45;;;;;;;4.65;2.50;;;;;;;;;;5020479;28;20041;-64
2022/04/22 06:18:11;;;;;;;5.57;2.45;;;;;;;;;;5023675;28;20065;-63
2022/04/22 06:20:38;;;;;;;5.03;2.55;;;;;;;;;;5022746;28;20041;-62
2022/04/22 06:23:05;;;;;;;5.80;2.55;;;;;;;;;;5023932;28;20056;-63
2022/04/22 06:25:32;;;;;;;4.70;2.30;;;;;;;;;;5021208;28;20041;-63
2022/04/22 06:27:59;;;;;;;4.70;2.33;;;;;;;;;;5023062;28;20049;-63
2022/04/22 06:30:27;;;;;;;5.47;2.65;;;;;;;;;;5020724;28;20664;-62
2022/04/22 06:32:54;;;;;;;7.03;2.70;;;;;;;;;;5023458;28;20033;-62
2022/04/22 06:35:21;;;;;;;5.13;2.38;;;;;;;;;;5021113;28;21142;-62
2022/04/22 06:37:49;;;;;;;8.38;2.20;;;;;;;;;;4999645;28;20164;-62
2022/04/22 06:45:49;;;;;;;6.32;2.28;;;;;;;;;;5021611;28;20107;-62
2022/04/22 06:48:20;;;;;;;8.90;2.38;;;;;;;;;;5021543;28;20049;-62
2022/04/22 06:50:48;;;;;;;5.03;2.28;;;;;;;;;;5020880;28;20099;-62
2022/04/22 06:53:16;;;;;;;5.65;2.13;;;;;;;;;;5021623;28;20045;-62
2022/04/22 06:55:43;;;;;;;5.13;2.05;;;;;;;;;;5019543;28;20822;-62
2022/04/22 06:58:11;;;;;;;4.65;2.05;;;;;;;;;;5020595;28;20049;-60
2022/04/22 07:00:39;;;;;;;4.20;2.10;;;;;;;;;;5020465;28;20497;-62
2022/04/22 07:03:05;;;;;;;4.40;2.17;;;;;;;;;;5022336;28;20225;-62
2022/04/22 07:05:33;;;;;;;4.60;2.03;;;;;;;;;;5020605;28;20148;-63
2022/04/22 07:08:04;;;;;;;3.80;1.67;;;;;;;;;;5003152;28;20550;-62
2022/04/22 07:10:31;;;;;;;4.05;2.15;;;;;;;;;;5001384;28;20840;-63
2022/04/22 07:12:58;;;;;;;4.28;2.17;;;;;;;;;;5022530;28;21508;-63
2022/04/22 07:15:26;;;;;;;7.10;2.30;;;;;;;;;;5023432;28;20033;-62
2022/04/22 07:17:52;;;;;;;4.65;2.33;;;;;;;;;;5023529;28;20187;-62
2022/04/22 07:20:19;;;;;;;3.95;2.00;;;;;;;;;;5041169;28;20046;-62
2022/04/22 07:22:46;;;;;;;4.78;2.05;;;;;;;;;;5037133;28;20544;-63
2022/04/22 07:25:14;;;;;;;6.15;2.08;;;;;;;;;;5039652;28;20037;-63
2022/04/22 07:27:42;;;;;;;4.30;1.80;;;;;;;;;;5041731;28;20049;-63
2022/04/22 07:30:10;;;;;;;4.30;2.10;;;;;;;;;;5036901;28;20037;-62
2022/04/22 07:32:41;;;;;;;3.80;2.03;;;;;;;;;;5039609;28;20361;-62
2022/04/22 07:35:12;;;;;;;7.53;1.75;;;;;;;;;;5042915;28;20052;-63
2022/04/22 07:37:46;;;;;;;4.22;1.80;;;;;;;;;;5039134;28;20230;-63
2022/04/22 07:40:14;;;;;;;6.07;2.28;;;;;;;;;;5039760;28;20061;-63
2022/04/22 07:46:46;;;;;;;5.57;2.08;;;;;;;;;;5039242;28;20041;-62
2022/04/22 07:48:13;;;;;;;3.80;1.80;;;;;;;;;;5038833;28;20084;-63
2022/04/22 07:50:40;;;;;;;7.63;1.90;;;;;;;;;;5038784;28;20048;-63
2022/04/22 07:53:07;;;;;;;5.45;1.90;;;;;;;;;;5039873;28;20161;-63
2022/04/22 07:55:34;;;;;;;3.80;1.85;;;;;;;;;;5037507;28;20120;-61
2022/04/22 07:58:01;;;;;;;4.00;1.88;;;;;;;;;;5038930;28;20121;-62
2022/04/22 08:00:28;;;;;;;4.40;2.00;;;;;;;;;;5036206;28;20059;-62
2022/04/22 08:02:54;;;;;;;3.90;1.90;;;;;;;;;;5039150;28;20079;-62
2022/04/22 08:05:21;;;;;;;3.65;1.65;;;;;;;;;;5039500;28;20048;-61
2022/04/22 08:07:47;;;;;;;3.58;1.60;;;;;;;;;;5040514;28;20040;-60
2022/04/22 08:10:14;;;;;;;4.38;1.63;;;;;;;;;;5040591;28;20583;-63
2022/04/22 08:12:41;;;;;;;6.38;1.90;;;;;;;;;;5041167;28;20114;-64
2022/04/22 08:15:09;;;;;;;3.60;1.60;;;;;;;;;;5040263;28;20469;-61
2022/04/22 08:17:39;;;;;;;4.90;2.00;;;;;;;;;;5040556;28;20049;-63
2022/04/22 08:22:44;;;;;;;3.92;1.70;;;;;;;;;;5167395;22;20053;-62
2022/04/22 08:25:11;;;;;;;4.18;1.60;;;;;;;;;;5045664;28;20132;-62
2022/04/22 08:27:38;;;;;;;3.45;1.60;;;;;;;;;;5048267;28;20036;-64
2022/04/22 08:30:06;;;;;;;7.03;2.03;;;;;;;;;;5024678;28;20037;-63
2022/04/22 08:32:32;;;;;;;4.68;2.10;;;;;;;;;;5040560;28;20044;-63
2022/04/22 08:34:59;;;;;;;4.45;1.98;;;;;;;;;;5039733;28;20041;-62
2022/04/22 08:37:26;;;;;;;4.15;1.70;;;;;;;;;;5039578;28;20056;-63
2022/04/22 08:39:54;;;;;;;3.85;1.95;;;;;;;;;;5040809;28;20033;-63
2022/04/22 08:42:25;;;;;;;5.10;2.17;;;;;;;;;;5040289;28;20060;-63
2022/04/22 08:44:52;;;;;;;4.57;2.08;;;;;;;;;;5041928;28;20524;-64
2022/04/22 08:50:16;;;;;;;7.70;1.90;;;;;;;;;;5038847;28;20044;-64
2022/04/22 08:52:44;;;;;;;6.30;2.10;;;;;;;;;;5038135;28;20882;-63
2022/04/22 08:55:13;;;;;;;4.63;1.88;;;;;;;;;;5040892;28;20041;-63
2022/04/22 08:57:41;;;;;;;4.60;2.00;;;;;;;;;;5039525;28;20112;-63
2022/04/22 09:00:08;;;;;;;4.30;1.92;;;;;;;;;;5038446;28;20037;-62
2022/04/22 09:02:35;;;;;;;5.35;2.40;;;;;;;;;;5040132;28;20048;-63
2022/04/22 09:05:02;;;;;;;4.93;2.30;;;;;;;;;;5041398;28;20044;-63
2022/04/22 09:07:32;;;;;;;5.50;2.28;;;;;;;;;;5040864;28;20100;-63
2022/04/22 09:09:58;;;;;;;3.80;1.77;;;;;;;;;;5040921;28;20047;-62
2022/04/22 09:12:26;;;;;;;5.18;2.30;;;;;;;;;;5040054;28;20037;-63
2022/04/22 09:14:54;;;;;;;5.78;2.22;;;;;;;;;;5040695;28;20036;-62
2022/04/22 09:17:23;;;;;;;6.80;2.30;;;;;;;;;;5039329;28;20057;-63
2022/04/22 09:19:53;;;;;;;4.55;2.17;;;;;;;;;;5040363;28;20472;-63
2022/04/22 09:22:21;;;;;;;5.22;2.38;;;;;;;;;;5040616;28;20714;-63
2022/04/22 09:24:54;;;;;;;4.45;2.22;;;;;;;;;;5039853;28;20764;-63
2022/04/22 09:27:31;;;;;;;4.25;2.20;;;;;;;;;;5039459;28;20060;-63
2022/04/22 09:29:58;;;;;;;4.47;2.35;;;;;;;;;;5040401;28;20044;-62
2022/04/22 09:32:28;;;;;;;6.72;2.47;;;;;;;;;;5013460;28;20052;-62
2022/04/22 09:35:07;;;;;;;5.32;2.15;;;;;;;;;;5039950;28;20132;-63
2022/04/22 09:42:39;;;;;;;4.75;2.00;;;;;;;;;;5039312;28;20094;-62
2022/04/22 09:43:18;;;;;;;4.60;2.05;;;;;;;;;;5038241;28;20136;-62
2022/04/22 09:45:46;;;;;;;5.63;2.13;;;;;;;;;;5039474;28;20032;-62
2022/04/22 09:48:17;;;;;;;6.60;2.30;;;;;;;;;;5038730;28;20044;-62
2022/04/22 09:50:52;;;;;;;6.43;2.63;;;;;;;;;;5038678;28;20044;-63
2022/04/22 09:53:20;;;;;;;5.07;3.10;;;;;;;;;;5038698;28;20036;-61
2022/04/22 09:55:56;;;;;;;4.53;2.15;;;;;;;;;;5038497;28;20102;-62
2022/04/22 09:58:23;;;;;;;3.95;1.92;;;;;;;;;;5037622;28;20041;-64
2022/04/22 10:00:54;;;;;;;4.68;1.95;;;;;;;;;;5038608;28;20090;-63
2022/04/22 10:03:22;;;;;;;4.90;2.35;;;;;;;;;;5038059;28;20048;-63
2022/04/22 10:05:50;;;;;;;4.60;2.58;;;;;;;;;;5038502;28;20047;-63
2022/04/22 10:08:17;;;;;;;6.47;2.55;;;;;;;;;;5019699;28;20842;-63
2022/04/22 10:10:44;;;;;;;6.45;3.08;;;;;;;;;;5039497;28;20044;-63
2022/04/22 10:13:16;;;;;;;6.55;3.03;;;;;;;;;;5037927;28;20033;-63
2022/04/22 10:15:43;;;;;;;5.47;2.97;;;;;;;;;;5037862;28;20048;-63
2022/04/22 10:18:11;;;;;;;5.15;2.63;;;;;;;;;;5037276;28;20117;-62
2022/04/22 10:20:38;;;;;;;6.95;3.25;;;;;;;;;;5038591;28;20037;-61
2022/04/22 10:23:05;;;;;;;6.43;3.00;;;;;;;;;;5038981;28;20497;-62
2022/04/22 10:25:33;;;;;;;7.00;3.15;;;;;;;;;;5038307;28;20037;-63
2022/04/22 10:28:07;;;;;;;5.65;3.25;;;;;;;;;;5037078;28;20206;-62
2022/04/22 10:30:35;;;;;;;6.75;3.88;;;;;;;;;;5038690;28;20465;-62
2022/04/22 10:33:02;;;;;;;8.00;4.30;;;;;;;;;;5038553;28;20091;-61
2022/04/22 10:35:29;;;;;;;6.65;4.03;;;;;;;;;;5038819;28;20037;-62
2022/04/22 10:37:57;;;;;;;7.82;3.70;;;;;;;;;;5037347;28;20045;-64
2022/04/22 10:40:25;;;;;;;7.38;3.40;;;;;;;;;;5039522;28;20544;-62
2022/04/22 10:42:53;;;;;;;6.03;2.92;;;;;;;;;;5038521;28;20041;-61
2022/04/22 10:48:25;;;;;;;6.18;2.88;;;;;;;;;;5037156;28;20102;-62
2022/04/22 10:50:58;;;;;;;5.70;2.80;;;;;;;;;;5037826;28;20037;-62
2022/04/22 10:53:26;;;;;;;6.00;2.72;;;;;;;;;;5034955;28;20047;-62
2022/04/22 10:55:54;;;;;;;9.27;2.97;;;;;;;;;;5038183;28;20057;-62
2022/04/22 10:58:23;;;;;;;5.80;2.70;;;;;;;;;;5036646;28;20080;-62
2022/04/22 11:00:54;;;;;;;5.28;3.00;;;;;;;;;;5038657;28;20142;-62
2022/04/22 11:03:25;;;;;;;9.23;3.15;;;;;;;;;;5036491;28;20124;-62
2022/04/22 11:05:53;;;;;;;10.35;3.60;;;;;;;;;;5038209;28;20539;-62
2022/04/22 11:08:26;;;;;;;5.72;3.50;;;;;;;;;;5037132;28;20041;-62
2022/04/22 11:10:53;;;;;;;;;;;;;;;;;;5038472;28;20044;-62
2022/04/22 11:13:33;;;;;;;7.50;3.58;;;;;;;;;;5038888;28;19916;-63
2022/04/22 11:16:01;;;;;;;8.50;3.30;;;;;;;;;;5039560;28;20045;-62
2022/04/22 11:18:27;;;;;;;6.45;3.60;;;;;;;;;;5039297;28;20049;-62
2022/04/22 11:21:20;;;;;;;7.35;3.78;;;;;;;;;;5038663;28;20072;-63
2022/04/22 11:23:47;;;;;;;6.28;3.08;;;;;;;;;;5015748;28;20104;-62
2022/04/22 11:26:14;;;;;;;6.32;3.28;;;;;;;;;;5016515;28;20038;-61
2022/04/22 11:28:42;;;;;;;6.97;3.05;;;;;;;;;;5017660;28;20038;-62
2022/04/22 11:31:10;;;;;;;6.57;3.00;;;;;;;;;;5000876;28;20068;-63
2022/04/22 11:33:45;;;;;;;6.90;3.58;;;;;;;;;;5016167;28;20045;-61
2022/04/22 11:36:17;;;;;;;7.25;3.33;;;;;;;;;;5018538;28;20056;-62
2022/04/22 11:38:48;;;;;;;12.80;3.53;;;;;;;;;;5017342;28;20040;-62
2022/04/22 11:41:16;;;;;;;7.15;3.40;;;;;;;;;;5019929;28;20048;-62
2022/04/22 11:43:43;;;;;;;7.47;3.40;;;;;;;;;;5021505;28;22191;-61
2022/04/22 11:46:13;;;;;;;6.25;3.47;;;;;;;;;;5021423;28;20046;-62
2022/04/22 11:48:47;;;;;;;6.20;3.22;;;;;;;;;;5020851;28;21446;-62
2022/04/22 11:51:15;;;;;;;6.00;3.13;;;;;;;;;;5021443;28;20526;-62
2022/04/22 11:53:49;;;;;;;5.43;3.30;;;;;;;;;;5020612;28;20117;-61
2022/04/22 11:56:20;;;;;;;8.38;3.67;;;;;;;;;;5021498;28;20038;-63
2022/04/22 11:58:47;;;;;;;10.32;3.55;;;;;;;;;;5021509;28;20041;-60
2022/04/22 12:06:47;;;;;;;7.30;4.00;;;;;;;;;;5022010;28;20079;-62
2022/04/22 12:09:14;;;;;;;6.60;4.00;;;;;;;;;;5021456;28;20044;-61
2022/04/22 12:11:42;;;;;;;7.10;4.18;;;;;;;;;;5002905;28;20041;-61
2022/04/22 12:14:12;;;;;;;6.30;3.75;;;;;;;;;;5020427;28;20068;-61
2022/04/22 12:16:41;;;;;;;7.88;4.32;;;;;;;;;;5004004;28;20063;-62
2022/04/22 12:19:09;;;;;;;9.70;3.85;;;;;;;;;;5022820;28;20037;-62
2022/04/22 12:21:36;;;;;;;10.82;4.20;;;;;;;;;;5020527;28;20048;-62
2022/04/22 12:24:03;;;;;;;7.57;4.50;;;;;;;;;;5021789;28;20733;-60
2022/04/22 12:26:37;;;;;;;6.53;3.88;;;;;;;;;;5022641;28;20081;-61
2022/04/22 12:29:10;;;;;;;7.32;3.83;;;;;;;;;;5023678;28;20516;-56
2022/04/22 12:31:41;;;;;;;6.60;3.28;;;;;;;;;;5023352;28;20084;-61
2022/04/22 12:34:11;;;;;;;8.98;4.10;;;;;;;;;;5003843;28;20393;-60
2022/04/22 12:36:53;;;;;;;7.55;4.20;;;;;;;;;;5023450;28;20144;-62
2022/04/22 12:39:33;;;;;;;6.30;3.92;;;;;;;;;;5023834;28;20041;-61
2022/04/22 12:42:00;;;;;;;5.18;2.53;;;;;;;;;;5023029;28;20156;-62
2022/04/22 12:44:27;;;;;;;4.88;2.50;;;;;;;;;;5022304;28;20049;-63
2022/04/22 12:52:34;;;;;;;7.80;3.45;;;;;;;;;;5020416;28;20036;-62
2022/04/22 12:55:05;;;;;;;7.32;3.70;;;;;;;;;;5021028;28;20033;-62
2022/04/22 12:57:32;;;;;;;7.10;3.20;;;;;;;;;;5021990;28;20053;-63
2022/04/22 12:59:59;;;;;;;7.35;3.00;;;;;;;;;;5023472;28;20585;-63
2022/04/22 13:02:29;;;;;;;5.60;3.15;;;;;;;;;;5004659;28;20041;-63
2022/04/22 13:04:59;;;;;;;7.03;3.20;;;;;;;;;;5022353;28;20048;-62
2022/04/22 13:07:27;;;;;;;6.75;3.58;;;;;;;;;;5023038;28;20046;-62
2022/04/22 13:09:54;;;;;;;8.82;4.07;;;;;;;;;;5023345;28;20041;-63
2022/04/22 13:12:20;;;;;;;7.22;3.58;;;;;;;;;;5020763;28;20052;-64
2022/04/22 13:14:48;;;;;;;7.18;4.13;;;;;;;;;;5004096;28;20038;-64
2022/04/22 13:17:18;;;;;;;7.95;4.20;;;;;;;;;;5021395;28;20061;-63
2022/04/22 13:19:45;;;;;;;10.63;4.35;;;;;;;;;;5022087;28;20049;-63
2022/04/22 13:22:12;;;;;;;9.90;4.88;;;;;;;;;;5025836;28;20059;-62
2022/04/22 13:24:40;;;;;;;7.30;4.82;;;;;;;;;;5022995;28;20037;-63
2022/04/22 13:27:07;;;;;;;9.07;5.78;;;;;;;;;;5043355;28;20105;-63
2022/04/22 13:29:33;;;;;;;12.68;6.28;;;;;;;;;;5042349;28;20037;-61
2022/04/22 13:32:00;;;;;;;10.55;5.97;;;;;;;;;;5042007;28;20037;-64
2022/04/22 13:34:27;;;;;;;11.82;6.13;;;;;;;;;;5040434;28;21650;-62
2022/04/22 13:36:54;;;;;;;12.43;6.38;;;;;;;;;;5043235;28;20087;-63
2022/04/22 13:39:20;;;;;;;9.18;5.50;;;;;;;;;;5044871;28;20117;-63
2022/04/22 13:41:47;;;;;;;13.85;6.53;;;;;;;;;;5043209;28;20056;-63
2022/04/22 13:52:20;;;;;;;10.25;5.70;;;;;;;;;;5041615;28;20044;-63
2022/04/22 13:52:30;;;;;;;7.72;4.90;;;;;;;;;;5045377;28;20086;-62
2022/04/22 13:54:57;;;;;;;10.25;5.43;;;;;;;;;;5041358;28;20040;-64
2022/04/22 13:57:24;;;;;;;10.77;5.78;;;;;;;;;;5041081;28;20044;-63
2022/04/22 13:59:50;;;;;;;8.52;5.40;;;;;;;;;;5039597;28;20041;-62
2022/04/22 14:02:17;;;;;;;14.40;5.65;;;;;;;;;;5040312;28;20140;-62
2022/04/22 14:04:44;;;;;;;10.43;6.05;;;;;;;;;;5038907;28;20056;-62
2022/04/22 14:07:12;;;;;;;10.23;7.15;;;;;;;;;;5039994;28;20049;-62
2022/04/22 14:09:39;;;;;;;12.18;7.40;;;;;;;;;;5038831;28;20065;-63
2022/04/22 14:12:06;;;;;;;11.50;7.05;;;;;;;;;;5039774;28;20162;-63
2022/04/22 14:14:33;;;;;;;13.85;7.55;;;;;;;;;;5037456;28;20041;-63
2022/04/22 14:16:59;;;;;;;12.27;7.57;;;;;;;;;;5041072;28;20057;-65
2022/04/22 14:19:26;;;;;;;14.15;7.40;;;;;;;;;;5038525;28;20102;-63
2022/04/22 14:21:53;;;;;;;12.85;7.53;;;;;;;;;;5039354;28;20059;-63
2022/04/22 14:24:20;;;;;;;14.70;7.97;;;;;;;;;;5037617;28;20029;-64
2022/04/22 14:26:47;;;;;;;12.45;8.43;;;;;;;;;;5040419;28;20055;-64
2022/04/22 14:29:13;;;;;;;14.50;7.75;;;;;;;;;;5040561;28;20036;-64
2022/04/22 14:31:40;;;;;;;18.25;8.80;;;;;;;;;;5037305;28;20037;-63
2022/04/22 14:34:07;;;;;;;16.08;8.48;;;;;;;;;;5038014;28;20041;-63
2022/04/22 14:36:34;;;;;;;16.30;9.55;;;;;;;;;;5038071;28;20057;-64
2022/04/22 14:39:01;;;;;;;12.75;8.05;;;;;;;;;;5038526;28;20052;-64
2022/04/22 14:41:28;;;;;;;16.33;9.82;;;;;;;;;;5036894;28;20070;-63
2022/04/22 14:43:55;;;;;;;11.00;7.28;;;;;;;;;;5021272;28;20048;-63
2022/04/22 14:46:23;;;;;;;12.43;5.90;;;;;;;;;;5037435;28;20693;-63
2022/04/22 14:48:50;;;;;;;17.48;8.13;;;;;;;;;;5037910;28;20082;-63
2022/04/22 14:51:16;;;;;;;17.23;7.45;;;;;;;;;;5038291;28;20124;-63
2022/04/22 14:53:43;;;;;;;13.85;8.80;;;;;;;;;;5038754;28;20041;-62
2022/04/22 14:56:10;;;;;;;11.77;6.82;;;;;;;;;;5038208;28;20045;-63
2022/04/22 14:58:37;;;;;;;12.73;8.02;;;;;;;;;;5037566;28;20041;-63
2022/04/22 15:01:03;;;;;;;13.73;8.02;;;;;;;;;;5037980;28;20626;-63
2022/04/22 15:03:30;;;;;;;13.45;8.45;;;;;;;;;;5037428;28;20544;-62
2022/04/22 15:05:57;;;;;;;13.02;8.45;;;;;;;;;;5036543;28;20041;-62
2022/04/22 15:08:24;;;;;;;14.38;7.82;;;;;;;;;;5035867;28;20045;-63
2022/04/22 15:10:51;;;;;;;14.70;7.80;;;;;;;;;;5036977;28;20053;-62
2022/04/22 15:13:20;;;;;;;13.20;8.55;;;;;;;;;;5037414;28;20037;-63
2022/04/22 15:15:47;;;;;;;14.15;8.25;;;;;;;;;;5039257;28;20040;-63
2022/04/22 15:26:30;;;;;;;17.65;10.45;;;;;;;;;;5044072;28;20132;-64
2022/04/22 15:28:57;;;;;;;20.48;11.18;;;;;;;;;;5027280;28;20132;-64
2022/04/22 15:31:23;;;;;;;19.90;11.90;;;;;;;;;;5043617;28;20032;-62
2022/04/22 15:33:50;;;;;;;17.23;11.50;;;;;;;;;;5046840;28;20144;-63
2022/04/22 15:36:17;;;;;;;18.20;10.57;;;;;;;;;;5044140;28;20033;-64
2022/04/22 15:38:45;;;;;;;16.02;9.55;;;;;;;;;;5045347;28;20044;-64
2022/04/22 15:41:12;;;;;;;16.25;9.38;;;;;;;;;;5044381;28;20048;-63
2022/04/22 15:43:43;;;;;;;17.88;10.48;;;;;;;;;;5044762;28;20065;-63
2022/04/22 15:46:10;;;;;;;15.73;10.43;;;;;;;;;;5045495;28;20052;-63
2022/04/22 15:48:37;;;;;;;16.83;8.88;;;;;;;;;;5045774;28;20066;-64
2022/04/22 15:51:04;;;;;;;17.38;10.15;;;;;;;;;;5028676;28;20049;-66
2022/04/22 15:53:31;;;;;;;17.85;11.38;;;;;;;;;;5046388;28;20062;-64
2022/04/22 15:55:59;;;;;;;17.35;11.27;;;;;;;;;;5046414;28;20040;-64
2022/04/22 15:58:25;;;;;;;19.63;11.13;;;;;;;;;;5042596;28;20059;-64
2022/04/22 16:00:52;;;;;;;19.42;12.13;;;;;;;;;;5043617;28;20037;-64
2022/04/22 16:03:19;;;;;;;23.25;13.77;;;;;;;;;;5044266;28;20044;-64